Time;durP1;ratioP1;P1;durP2;ratioP2;P2;SDS_P1;SDS_P2;PMS_P1;PMS_P2;Temp;Humidity;BMP_temperature;BMP_pressure;BME280_temperature;BME280_humidity;BME280_pressure;Samples;Min_cycle;Max_cycle;Signal;HPM_P1;HPM_P2
2024/02/26 00:03:29;;;;;;;5.18;4.68;;;;;;;;;;10412197;28;20067;-64
2024/02/26 00:08:28;;;;;;;6.78;4.32;;;;;;;;;;10412725;28;20073;-64
2024/02/26 00:13:26;;;;;;;8.05;5.93;;;;;;;;;;10406480;28;20067;-63
2024/02/26 00:18:24;;;;;;;5.43;4.78;;;;;;;;;;10413382;28;20090;-63
2024/02/26 00:23:24;;;;;;;5.88;5.38;;;;;;;;;;10411908;28;20078;-63
2024/02/26 00:28:22;;;;;;;5.80;5.15;;;;;;;;;;10413630;28;20062;-63
2024/02/26 00:33:20;;;;;;;5.70;5.18;;;;;;;;;;10418382;27;20066;-62
2024/02/26 00:38:19;;;;;;;5.68;5.18;;;;;;;;;;10419318;27;20074;-63
2024/02/26 00:43:18;;;;;;;8.52;5.60;;;;;;;;;;10417603;27;20079;-62
2024/02/26 00:48:17;;;;;;;5.78;5.18;;;;;;;;;;10419589;27;20071;-62
2024/02/26 00:53:15;;;;;;;6.13;4.78;;;;;;;;;;10415487;27;20078;-63
2024/02/26 00:58:13;;;;;;;6.93;5.82;;;;;;;;;;10419760;27;20063;-62
2024/02/26 01:03:13;;;;;;;5.72;4.22;;;;;;;;;;10418495;27;20062;-64
2024/02/26 01:08:11;;;;;;;6.43;5.00;;;;;;;;;;10418454;27;20176;-63
2024/02/26 01:13:10;;;;;;;5.60;5.00;;;;;;;;;;10416420;27;20063;-63
2024/02/26 01:18:08;;;;;;;6.60;5.32;;;;;;;;;;10417971;27;20075;-64
2024/02/26 01:23:08;;;;;;;7.28;5.25;;;;;;;;;;10419219;27;20090;-62
2024/02/26 01:28:06;;;;;;;5.53;5.03;;;;;;;;;;10417137;27;20075;-63
2024/02/26 01:33:05;;;;;;;5.90;5.28;;;;;;;;;;10415064;27;20067;-63
2024/02/26 01:38:05;;;;;;;7.47;6.22;;;;;;;;;;10397223;27;20082;-63
2024/02/26 01:43:05;;;;;;;6.47;5.85;;;;;;;;;;10411459;27;20067;-62
2024/02/26 01:48:03;;;;;;;7.50;6.45;;;;;;;;;;10416248;27;20063;-63
2024/02/26 01:53:02;;;;;;;8.48;5.80;;;;;;;;;;10417294;27;20067;-63
2024/02/26 01:58:00;;;;;;;6.22;5.63;;;;;;;;;;10416454;27;20068;-63
2024/02/26 02:03:00;;;;;;;8.77;5.95;;;;;;;;;;10415836;27;20080;-62
2024/02/26 02:08:03;;;;;;;9.10;6.50;;;;;;;;;;10414093;27;20110;-62
2024/02/26 02:13:04;;;;;;;6.80;5.60;;;;;;;;;;10411473;27;20083;-64
2024/02/26 02:18:04;;;;;;;6.45;5.85;;;;;;;;;;10415708;27;20066;-63
2024/02/26 02:23:04;;;;;;;9.93;8.40;;;;;;;;;;10417390;27;20086;-63
2024/02/26 02:28:02;;;;;;;6.95;6.15;;;;;;;;;;10409462;27;20077;-63
2024/02/26 02:33:00;;;;;;;7.72;6.68;;;;;;;;;;10411889;27;20098;-62
2024/02/26 02:38:01;;;;;;;7.75;6.97;;;;;;;;;;10410370;27;20059;-62
2024/02/26 02:43:02;;;;;;;9.55;6.32;;;;;;;;;;10414295;27;20055;-63
2024/02/26 02:48:00;;;;;;;6.38;5.30;;;;;;;;;;10416057;27;20088;-63
2024/02/26 02:52:58;;;;;;;7.80;6.40;;;;;;;;;;10415312;27;20071;-64
2024/02/26 02:57:57;;;;;;;15.73;9.27;;;;;;;;;;10415009;27;20075;-63
2024/02/26 03:02:56;;;;;;;12.77;10.77;;;;;;;;;;10413584;27;20071;-64
2024/02/26 03:07:54;;;;;;;13.70;11.02;;;;;;;;;;10414396;27;20074;-64
2024/02/26 03:12:53;;;;;;;12.30;10.57;;;;;;;;;;10414890;27;20062;-64
2024/02/26 03:17:51;;;;;;;11.57;9.90;;;;;;;;;;10415212;27;20071;-68
2024/02/26 03:22:50;;;;;;;11.00;9.23;;;;;;;;;;10411181;27;20085;-64
2024/02/26 03:27:49;;;;;;;8.48;7.50;;;;;;;;;;10396480;27;20086;-65
2024/02/26 03:32:47;;;;;;;10.52;7.90;;;;;;;;;;10413850;27;20075;-63
2024/02/26 03:37:46;;;;;;;12.18;8.93;;;;;;;;;;10414310;28;20078;-62
2024/02/26 03:42:46;;;;;;;8.93;7.82;;;;;;;;;;10410035;28;20070;-62
2024/02/26 03:47:45;;;;;;;9.00;7.32;;;;;;;;;;10410130;28;20460;-63
2024/02/26 03:52:43;;;;;;;8.10;7.05;;;;;;;;;;10410501;28;20098;-63
2024/02/26 03:57:42;;;;;;;8.05;6.88;;;;;;;;;;10413803;28;20078;-63
2024/02/26 04:02:41;;;;;;;12.05;8.23;;;;;;;;;;10411865;28;20071;-62
2024/02/26 04:07:40;;;;;;;9.57;8.25;;;;;;;;;;10418267;27;20078;-62
2024/02/26 04:12:39;;;;;;;21.00;14.75;;;;;;;;;;10420677;27;20066;-62
2024/02/26 04:17:38;;;;;;;12.10;10.05;;;;;;;;;;10419719;27;20074;-63
2024/02/26 04:22:38;;;;;;;11.10;9.27;;;;;;;;;;10421435;27;20075;-63
2024/02/26 04:27:36;;;;;;;11.32;9.88;;;;;;;;;;10418521;27;20073;-65
2024/02/26 04:32:35;;;;;;;12.68;10.70;;;;;;;;;;10419372;27;20078;-63
2024/02/26 04:37:33;;;;;;;11.32;9.75;;;;;;;;;;10418595;27;20101;-64
2024/02/26 04:42:33;;;;;;;10.52;9.30;;;;;;;;;;10417615;27;20066;-63
2024/02/26 04:47:31;;;;;;;11.35;8.57;;;;;;;;;;10415110;27;20067;-63
2024/02/26 04:52:29;;;;;;;10.25;7.65;;;;;;;;;;10421653;27;20075;-62
2024/02/26 04:57:27;;;;;;;9.18;7.93;;;;;;;;;;10419429;27;20542;-64
2024/02/26 05:02:27;;;;;;;12.70;7.78;;;;;;;;;;10422308;27;20067;-62
2024/02/26 05:07:25;;;;;;;12.20;8.30;;;;;;;;;;10416173;27;20458;-62
2024/02/26 05:12:23;;;;;;;11.25;7.90;;;;;;;;;;10418523;27;20067;-63
2024/02/26 05:17:22;;;;;;;10.52;8.13;;;;;;;;;;10418512;27;20500;-63
2024/02/26 05:22:24;;;;;;;11.30;8.30;;;;;;;;;;10416708;27;20086;-63
2024/02/26 05:27:23;;;;;;;8.18;7.38;;;;;;;;;;10396772;27;20080;-63
2024/02/26 05:32:21;;;;;;;7.63;6.80;;;;;;;;;;10416724;27;20079;-63
2024/02/26 05:37:19;;;;;;;11.75;7.70;;;;;;;;;;10417750;27;20102;-63
2024/02/26 05:42:19;;;;;;;8.70;7.68;;;;;;;;;;10417581;27;20066;-63
2024/02/26 05:47:18;;;;;;;18.33;13.52;;;;;;;;;;10412710;27;20063;-63
2024/02/26 05:52:16;;;;;;;32.97;24.02;;;;;;;;;;10411764;27;20066;-62
2024/02/26 05:57:14;;;;;;;21.77;17.80;;;;;;;;;;10418233;27;20075;-62
2024/02/26 06:02:14;;;;;;;8.52;7.43;;;;;;;;;;10414490;27;20062;-62
2024/02/26 06:07:12;;;;;;;10.07;8.15;;;;;;;;;;10415456;27;20075;-62
2024/02/26 06:12:10;;;;;;;23.83;16.00;;;;;;;;;;10413750;27;20067;-62
2024/02/26 06:17:09;;;;;;;49.05;37.05;;;;;;;;;;10411527;27;20062;-62
2024/02/26 06:22:08;;;;;;;56.47;40.05;;;;;;;;;;10425210;27;20074;-64
2024/02/26 06:27:07;;;;;;;20.08;15.43;;;;;;;;;;10423865;27;20063;-64
2024/02/26 06:32:05;;;;;;;22.35;17.38;;;;;;;;;;10404716;27;20098;-63
2024/02/26 06:37:04;;;;;;;20.17;16.83;;;;;;;;;;10412956;27;20062;-62
2024/02/26 06:42:03;;;;;;;14.25;12.75;;;;;;;;;;10419188;27;20067;-62
2024/02/26 06:47:02;;;;;;;10.10;8.82;;;;;;;;;;10416693;27;20093;-62
2024/02/26 06:52:00;;;;;;;10.90;8.85;;;;;;;;;;10418268;27;20531;-62
2024/02/26 06:56:59;;;;;;;15.23;12.85;;;;;;;;;;10412400;27;20063;-62
2024/02/26 07:01:58;;;;;;;15.43;11.63;;;;;;;;;;10410219;27;20068;-62
2024/02/26 07:06:57;;;;;;;12.43;10.00;;;;;;;;;;10421704;27;20558;-62
2024/02/26 07:11:55;;;;;;;30.92;19.83;;;;;;;;;;10419830;27;20074;-63
2024/02/26 07:16:59;;;;;;;33.38;23.23;;;;;;;;;;10416742;27;20067;-64
2024/02/26 07:21:57;;;;;;;35.03;23.73;;;;;;;;;;10419154;27;20357;-62
2024/02/26 07:26:55;;;;;;;21.55;17.17;;;;;;;;;;10411120;27;20105;-61
2024/02/26 07:31:54;;;;;;;34.25;18.45;;;;;;;;;;10412745;27;20063;-62
2024/02/26 07:36:53;;;;;;;27.80;17.92;;;;;;;;;;10414504;28;20078;-64
2024/02/26 07:41:52;;;;;;;26.42;17.23;;;;;;;;;;10413190;28;20067;-61
2024/02/26 07:46:52;;;;;;;20.30;15.23;;;;;;;;;;10410506;28;20063;-62
2024/02/26 07:51:50;;;;;;;20.00;15.15;;;;;;;;;;10414919;28;20059;-62
2024/02/26 07:56:49;;;;;;;20.67;14.60;;;;;;;;;;10412703;28;20059;-62
2024/02/26 08:01:50;;;;;;;19.35;13.45;;;;;;;;;;10412683;28;20075;-62
2024/02/26 08:06:54;;;;;;;24.63;17.15;;;;;;;;;;10412591;28;20089;-61
2024/02/26 08:11:54;;;;;;;20.75;13.48;;;;;;;;;;10414143;28;20421;-62
2024/02/26 08:16:52;;;;;;;20.75;14.77;;;;;;;;;;10396976;28;20075;-62
2024/02/26 08:21:51;;;;;;;28.80;16.10;;;;;;;;;;10417554;28;20079;-62
2024/02/26 08:26:49;;;;;;;33.45;20.23;;;;;;;;;;10417440;28;20081;-62
2024/02/26 08:31:49;;;;;;;34.53;21.08;;;;;;;;;;10415081;28;20058;-62
2024/02/26 08:36:48;;;;;;;30.15;18.45;;;;;;;;;;10411873;28;20067;-63
2024/02/26 08:41:47;;;;;;;31.08;20.08;;;;;;;;;;10409396;28;20531;-62
2024/02/26 08:46:46;;;;;;;29.02;20.52;;;;;;;;;;10411648;28;20098;-62
2024/02/26 08:51:46;;;;;;;20.55;16.48;;;;;;;;;;10414260;27;20075;-62
2024/02/26 08:56:44;;;;;;;20.75;15.40;;;;;;;;;;10412064;27;20074;-62
2024/02/26 09:01:42;;;;;;;20.25;13.63;;;;;;;;;;10400778;27;20494;-61
2024/02/26 09:06:40;;;;;;;17.05;13.13;;;;;;;;;;10417830;27;20532;-63
2024/02/26 09:11:40;;;;;;;23.33;13.65;;;;;;;;;;10421239;27;20113;-60
2024/02/26 09:16:38;;;;;;;19.40;13.07;;;;;;;;;;10411657;27;20079;-62
2024/02/26 09:21:37;;;;;;;15.57;13.73;;;;;;;;;;10419143;27;20079;-63
2024/02/26 09:26:35;;;;;;;19.05;12.80;;;;;;;;;;10420899;27;20071;-62
2024/02/26 09:31:35;;;;;;;17.25;12.63;;;;;;;;;;10419514;27;20093;-63
2024/02/26 09:36:33;;;;;;;26.15;13.63;;;;;;;;;;10420442;27;20070;-62
2024/02/26 09:41:31;;;;;;;13.55;11.68;;;;;;;;;;10415153;27;20071;-63
2024/02/26 09:46:31;;;;;;;19.90;12.73;;;;;;;;;;10419130;27;20172;-63
2024/02/26 09:51:31;;;;;;;20.27;13.32;;;;;;;;;;10414595;27;20090;-63
2024/02/26 09:56:32;;;;;;;20.83;13.15;;;;;;;;;;10420963;27;20067;-62
2024/02/26 10:01:33;;;;;;;19.67;12.40;;;;;;;;;;10418752;27;20078;-62
2024/02/26 10:06:33;;;;;;;13.52;11.23;;;;;;;;;;10414438;27;20067;-62
2024/02/26 10:11:31;;;;;;;20.23;14.18;;;;;;;;;;10419130;27;20074;-62
2024/02/26 10:16:34;;;;;;;15.68;11.93;;;;;;;;;;10414896;27;20067;-63
2024/02/26 10:21:33;;;;;;;13.32;10.55;;;;;;;;;;10415525;27;20079;-62
2024/02/26 10:26:32;;;;;;;15.60;10.95;;;;;;;;;;10417433;27;20074;-62
2024/02/26 10:31:30;;;;;;;13.27;11.32;;;;;;;;;;10414584;27;20082;-61
2024/02/26 10:36:29;;;;;;;13.48;10.95;;;;;;;;;;10419893;27;20055;-62
2024/02/26 10:41:46;;;;;;;13.75;11.30;;;;;;;;;;10413529;27;20079;-61
2024/02/26 10:46:47;;;;;;;14.25;11.82;;;;;;;;;;10414402;27;20067;-61
2024/02/26 10:51:46;;;;;;;13.98;12.15;;;;;;;;;;10412626;27;20519;-62
2024/02/26 10:56:47;;;;;;;14.07;11.77;;;;;;;;;;10418362;27;20079;-62
2024/02/26 11:01:46;;;;;;;12.48;10.75;;;;;;;;;;10415150;27;20067;-62
2024/02/26 11:06:45;;;;;;;13.35;11.95;;;;;;;;;;10416106;27;20082;-62
2024/02/26 11:11:45;;;;;;;13.70;11.98;;;;;;;;;;10414823;27;20071;-62
2024/02/26 11:16:45;;;;;;;17.15;11.63;;;;;;;;;;10417347;27;20122;-62
2024/02/26 11:21:43;;;;;;;12.38;9.75;;;;;;;;;;10413640;27;20071;-63
2024/02/26 11:26:45;;;;;;;11.63;7.72;;;;;;;;;;10404342;27;20094;-63
2024/02/26 11:31:45;;;;;;;10.57;7.68;;;;;;;;;;10412234;27;20074;-63
2024/02/26 11:36:43;;;;;;;15.32;9.65;;;;;;;;;;10409936;27;20062;-62
2024/02/26 11:41:42;;;;;;;12.52;10.50;;;;;;;;;;10413743;28;20071;-62
2024/02/26 11:46:40;;;;;;;11.45;10.35;;;;;;;;;;10409339;28;20075;-62
2024/02/26 11:51:43;;;;;;;14.02;9.95;;;;;;;;;;10413099;28;20067;-63
2024/02/26 11:56:41;;;;;;;15.20;11.00;;;;;;;;;;10410738;28;20493;-62
2024/02/26 12:01:40;;;;;;;11.38;10.13;;;;;;;;;;10412790;28;20063;-62
2024/02/26 12:06:47;;;;;;;11.60;9.98;;;;;;;;;;10411955;28;20067;-63
2024/02/26 12:11:46;;;;;;;12.10;9.90;;;;;;;;;;10410728;28;20086;-63
2024/02/26 12:16:45;;;;;;;11.57;9.45;;;;;;;;;;10412032;28;20067;-63
2024/02/26 12:21:43;;;;;;;11.95;10.40;;;;;;;;;;10413695;28;20072;-63
2024/02/26 12:26:43;;;;;;;14.75;10.65;;;;;;;;;;10416478;27;20071;-62
2024/02/26 12:31:41;;;;;;;13.43;8.68;;;;;;;;;;10415806;27;20071;-63
2024/02/26 12:36:40;;;;;;;14.70;8.88;;;;;;;;;;10420870;27;20074;-63
2024/02/26 12:41:39;;;;;;;12.63;9.85;;;;;;;;;;10415199;27;20586;-62
2024/02/26 12:46:38;;;;;;;12.80;10.38;;;;;;;;;;10417348;27;20569;-62
2024/02/26 12:51:38;;;;;;;13.13;8.60;;;;;;;;;;10413391;27;20081;-63
2024/02/26 12:56:36;;;;;;;12.07;9.13;;;;;;;;;;10417001;27;20071;-62
2024/02/26 13:01:35;;;;;;;12.80;10.50;;;;;;;;;;10417509;27;20058;-63
2024/02/26 13:06:35;;;;;;;23.13;17.98;;;;;;;;;;10418472;27;20078;-65
2024/02/26 13:11:35;;;;;;;12.95;8.65;;;;;;;;;;10416248;27;20719;-64
2024/02/26 13:16:35;;;;;;;20.48;10.00;;;;;;;;;;10418698;27;20070;-63
2024/02/26 13:21:35;;;;;;;22.40;14.07;;;;;;;;;;10416613;27;20370;-63
2024/02/26 13:26:33;;;;;;;12.88;9.43;;;;;;;;;;10418292;27;20086;-63
2024/02/26 13:31:31;;;;;;;18.48;13.65;;;;;;;;;;10398942;27;20480;-64
2024/02/26 13:36:30;;;;;;;15.52;10.82;;;;;;;;;;10416376;27;20067;-63
2024/02/26 13:41:29;;;;;;;17.98;11.75;;;;;;;;;;10413097;27;20149;-64
2024/02/26 13:46:28;;;;;;;13.38;8.65;;;;;;;;;;10415226;27;20428;-64
2024/02/26 13:51:26;;;;;;;16.95;8.98;;;;;;;;;;10417276;27;20066;-63
2024/02/26 13:56:26;;;;;;;11.65;7.22;;;;;;;;;;10416430;27;20535;-63
2024/02/26 14:01:25;;;;;;;12.38;7.45;;;;;;;;;;10417048;27;20067;-63
2024/02/26 14:06:24;;;;;;;10.23;6.85;;;;;;;;;;10414387;27;20063;-62
2024/02/26 14:11:22;;;;;;;11.40;6.85;;;;;;;;;;10414714;27;20128;-63
2024/02/26 14:16:21;;;;;;;10.35;7.32;;;;;;;;;;10421299;27;20078;-62
2024/02/26 14:21:20;;;;;;;15.93;9.70;;;;;;;;;;10409938;27;20109;-63
2024/02/26 14:26:19;;;;;;;12.57;8.70;;;;;;;;;;10414047;27;20074;-62
2024/02/26 14:31:18;;;;;;;14.75;8.90;;;;;;;;;;10414380;27;20676;-61
2024/02/26 14:36:16;;;;;;;18.65;10.13;;;;;;;;;;10414147;27;20476;-63
2024/02/26 14:41:16;;;;;;;15.30;10.32;;;;;;;;;;10413927;27;20067;-62
2024/02/26 14:46:14;;;;;;;16.88;9.98;;;;;;;;;;10409586;27;20066;-62
2024/02/26 14:51:12;;;;;;;13.45;8.75;;;;;;;;;;10408557;27;20067;-62
2024/02/26 14:56:11;;;;;;;13.48;8.60;;;;;;;;;;10415057;27;20540;-61
2024/02/26 15:01:11;;;;;;;22.13;8.75;;;;;;;;;;10414174;27;20066;-62
2024/02/26 15:06:09;;;;;;;20.80;8.02;;;;;;;;;;10410859;27;20082;-62
2024/02/26 15:11:08;;;;;;;12.93;8.93;;;;;;;;;;10410110;27;20088;-63
2024/02/26 15:16:06;;;;;;;17.52;8.15;;;;;;;;;;10412006;27;20060;-63
2024/02/26 15:21:07;;;;;;;14.32;8.18;;;;;;;;;;10409846;27;20071;-61
2024/02/26 15:26:05;;;;;;;10.98;8.55;;;;;;;;;;10413896;27;20078;-62
2024/02/26 15:31:03;;;;;;;15.18;8.00;;;;;;;;;;10412741;27;20747;-62
2024/02/26 15:36:01;;;;;;;16.35;8.63;;;;;;;;;;10412415;27;20055;-61
2024/02/26 15:41:01;;;;;;;14.15;7.90;;;;;;;;;;10409309;27;20074;-61
2024/02/26 15:46:01;;;;;;;16.00;8.15;;;;;;;;;;10411474;28;20108;-62
2024/02/26 15:50:59;;;;;;;19.23;16.27;;;;;;;;;;10411269;28;20077;-61
2024/02/26 15:55:59;;;;;;;42.10;30.42;;;;;;;;;;10415201;28;20805;-62
2024/02/26 16:00:59;;;;;;;13.27;8.50;;;;;;;;;;10415213;27;20071;-61
2024/02/26 16:06:14;;;;;;;14.93;8.60;;;;;;;;;;10421226;27;20063;-62
2024/02/26 16:11:12;;;;;;;35.20;20.10;;;;;;;;;;10423033;27;20509;-62
2024/02/26 16:16:15;;;;;;;17.67;11.70;;;;;;;;;;10420418;27;20354;-61
2024/02/26 16:21:15;;;;;;;19.50;14.40;;;;;;;;;;10409975;27;20544;-62
2024/02/26 16:26:14;;;;;;;19.75;11.48;;;;;;;;;;10424813;27;20082;-62
2024/02/26 16:31:16;;;;;;;20.80;12.85;;;;;;;;;;10425123;27;20070;-62
2024/02/26 16:36:15;;;;;;;14.27;11.15;;;;;;;;;;10422811;27;20074;-63
2024/02/26 16:41:13;;;;;;;11.00;9.43;;;;;;;;;;10422390;27;20055;-60
2024/02/26 16:46:15;;;;;;;13.55;8.13;;;;;;;;;;10423271;27;20066;-62
2024/02/26 16:51:17;;;;;;;13.07;8.65;;;;;;;;;;10420894;27;20488;-62
2024/02/26 16:56:15;;;;;;;13.90;7.78;;;;;;;;;;10416751;27;20075;-62
2024/02/26 17:01:14;;;;;;;11.35;7.78;;;;;;;;;;10421679;27;20073;-62
2024/02/26 17:06:16;;;;;;;8.27;4.72;;;;;;;;;;10420417;27;20078;-62
2024/02/26 17:11:17;;;;;;;9.48;5.72;;;;;;;;;;10419183;27;20074;-63
2024/02/26 17:16:18;;;;;;;14.40;7.65;;;;;;;;;;10423171;27;20062;-61
2024/02/26 17:21:17;;;;;;;10.15;6.00;;;;;;;;;;10416493;27;20094;-61
2024/02/26 17:26:19;;;;;;;12.93;5.20;;;;;;;;;;10419007;27;20070;-62
2024/02/26 17:31:19;;;;;;;6.43;5.03;;;;;;;;;;10423119;27;20075;-61
2024/02/26 17:36:17;;;;;;;9.40;5.43;;;;;;;;;;10430080;27;20062;-61
2024/02/26 17:41:15;;;;;;;8.93;7.50;;;;;;;;;;10421792;27;20073;-63
2024/02/26 17:46:15;;;;;;;6.50;4.93;;;;;;;;;;10418680;27;20081;-62
2024/02/26 17:51:13;;;;;;;8.32;4.28;;;;;;;;;;10406129;27;20075;-62
2024/02/26 17:56:13;;;;;;;9.02;5.10;;;;;;;;;;10420501;27;20074;-62
2024/02/26 18:01:11;;;;;;;6.07;4.80;;;;;;;;;;10415382;27;20081;-63
2024/02/26 18:06:12;;;;;;;6.55;4.47;;;;;;;;;;10420147;27;20094;-63
2024/02/26 18:11:12;;;;;;;10.00;4.13;;;;;;;;;;10423008;27;20078;-61
2024/02/26 18:16:10;;;;;;;6.63;4.65;;;;;;;;;;10420846;27;20066;-64
2024/02/26 18:21:12;;;;;;;12.10;5.97;;;;;;;;;;10423847;27;20085;-63
2024/02/26 18:26:18;;;;;;;10.27;4.43;;;;;;;;;;10420115;27;20066;-63
2024/02/26 18:31:20;;;;;;;9.35;4.20;;;;;;;;;;10424901;27;20082;-62
2024/02/26 18:36:22;;;;;;;5.28;4.25;;;;;;;;;;10423903;27;20070;-62
2024/02/26 18:41:24;;;;;;;6.97;4.53;;;;;;;;;;10424410;27;20042;-61
2024/02/26 18:46:23;;;;;;;15.25;5.28;;;;;;;;;;10420346;27;20070;-61
2024/02/26 18:51:22;;;;;;;6.43;5.20;;;;;;;;;;10419764;27;20077;-61
2024/02/26 18:56:22;;;;;;;10.38;4.90;;;;;;;;;;10422285;27;20082;-61
2024/02/26 19:01:21;;;;;;;8.48;4.90;;;;;;;;;;10418320;27;20070;-61
2024/02/26 19:06:19;;;;;;;11.85;4.47;;;;;;;;;;10417904;27;20063;-61
2024/02/26 19:11:20;;;;;;;7.63;3.80;;;;;;;;;;10418803;27;20493;-61
2024/02/26 19:16:18;;;;;;;4.25;3.83;;;;;;;;;;10417677;27;20063;-61
2024/02/26 19:21:16;;;;;;;9.82;4.20;;;;;;;;;;10419022;27;20078;-62
2024/02/26 19:26:14;;;;;;;5.90;3.88;;;;;;;;;;10419908;27;20058;-62
2024/02/26 19:31:14;;;;;;;7.40;3.83;;;;;;;;;;10418168;27;20078;-61
2024/02/26 19:36:13;;;;;;;8.35;3.90;;;;;;;;;;10418208;27;20074;-62
2024/02/26 19:41:11;;;;;;;5.45;4.32;;;;;;;;;;10418126;27;20484;-62
2024/02/26 19:46:09;;;;;;;11.48;5.65;;;;;;;;;;10418668;27;20524;-64
2024/02/26 19:51:09;;;;;;;6.03;4.65;;;;;;;;;;10419121;28;20078;-62
2024/02/26 19:56:07;;;;;;;6.03;4.60;;;;;;;;;;10416403;28;20586;-61
2024/02/26 20:01:07;;;;;;;11.95;7.15;;;;;;;;;;10415417;28;21130;-61
2024/02/26 20:06:06;;;;;;;12.65;6.78;;;;;;;;;;10418312;28;20457;-60
2024/02/26 20:11:06;;;;;;;29.80;22.90;;;;;;;;;;10411432;28;20062;-61
2024/02/26 20:16:05;;;;;;;14.95;11.48;;;;;;;;;;10412974;28;20071;-62
2024/02/26 20:21:03;;;;;;;11.18;8.32;;;;;;;;;;10416779;28;20074;-62
2024/02/26 20:26:01;;;;;;;14.02;10.02;;;;;;;;;;10418878;28;20075;-62
2024/02/26 20:31:02;;;;;;;12.00;8.65;;;;;;;;;;10410928;28;20514;-60
2024/02/26 20:36:01;;;;;;;7.63;5.90;;;;;;;;;;10403967;28;20531;-62
2024/02/26 20:40:59;;;;;;;8.50;5.47;;;;;;;;;;10393965;28;20063;-62
2024/02/26 20:45:58;;;;;;;10.05;5.70;;;;;;;;;;10389312;28;20063;-62
2024/02/26 20:50:57;;;;;;;7.80;5.22;;;;;;;;;;10422595;27;20077;-62
2024/02/26 20:55:56;;;;;;;12.05;6.43;;;;;;;;;;10425661;27;20077;-60
2024/02/26 21:00:55;;;;;;;6.50;5.38;;;;;;;;;;10423216;27;20538;-61
2024/02/26 21:05:54;;;;;;;11.27;6.72;;;;;;;;;;10420718;27;20071;-60
2024/02/26 21:10:54;;;;;;;10.15;5.70;;;;;;;;;;10422998;27;20067;-61
2024/02/26 21:15:52;;;;;;;7.43;5.00;;;;;;;;;;10420014;27;20074;-61
2024/02/26 21:20:52;;;;;;;12.50;6.32;;;;;;;;;;10417937;27;20086;-61
2024/02/26 21:25:51;;;;;;;13.93;7.18;;;;;;;;;;10421432;27;20074;-61
2024/02/26 21:30:54;;;;;;;11.20;7.90;;;;;;;;;;10417787;27;20473;-63
2024/02/26 21:35:53;;;;;;;10.38;6.22;;;;;;;;;;10417714;27;20530;-62
2024/02/26 21:40:51;;;;;;;9.85;5.32;;;;;;;;;;10416170;27;20074;-60
2024/02/26 21:45:51;;;;;;;10.75;6.07;;;;;;;;;;10416200;27;20543;-62
2024/02/26 21:50:50;;;;;;;10.05;6.32;;;;;;;;;;10415132;27;20085;-62
2024/02/26 21:55:48;;;;;;;10.82;7.22;;;;;;;;;;10412794;27;20074;-62
2024/02/26 22:00:46;;;;;;;9.57;5.78;;;;;;;;;;10404393;27;20067;-61
2024/02/26 22:05:47;;;;;;;12.73;6.50;;;;;;;;;;10412529;27;20063;-62
2024/02/26 22:10:47;;;;;;;8.88;6.72;;;;;;;;;;10415419;27;20082;-62
2024/02/26 22:15:46;;;;;;;13.38;6.97;;;;;;;;;;10397944;27;20557;-62
2024/02/26 22:20:44;;;;;;;10.35;6.28;;;;;;;;;;10416518;27;20078;-62
2024/02/26 22:25:44;;;;;;;14.05;7.68;;;;;;;;;;10416618;27;20083;-62
2024/02/26 22:30:42;;;;;;;12.38;7.53;;;;;;;;;;10419169;27;20453;-63
2024/02/26 22:35:40;;;;;;;10.25;7.25;;;;;;;;;;10418467;27;20509;-62
2024/02/26 22:40:39;;;;;;;17.90;7.65;;;;;;;;;;10415510;27;20071;-63
2024/02/26 22:45:38;;;;;;;12.52;7.82;;;;;;;;;;10418683;27;20075;-63
2024/02/26 22:50:37;;;;;;;15.10;8.57;;;;;;;;;;10408834;27;20573;-62
2024/02/26 22:55:35;;;;;;;12.65;8.90;;;;;;;;;;10414302;27;20475;-61
2024/02/26 23:00:35;;;;;;;13.45;8.95;;;;;;;;;;10417609;27;20702;-63
2024/02/26 23:05:35;;;;;;;19.80;9.13;;;;;;;;;;10413912;27;20074;-62
2024/02/26 23:10:34;;;;;;;16.95;9.00;;;;;;;;;;10412464;27;20097;-62
2024/02/26 23:15:32;;;;;;;18.05;10.10;;;;;;;;;;10412168;27;20084;-62
2024/02/26 23:20:30;;;;;;;14.55;8.48;;;;;;;;;;10414030;27;20091;-63
2024/02/26 23:25:30;;;;;;;13.60;8.48;;;;;;;;;;10415360;27;20070;-63
2024/02/26 23:30:28;;;;;;;13.88;8.77;;;;;;;;;;10410792;27;20082;-63
2024/02/26 23:35:26;;;;;;;15.68;8.63;;;;;;;;;;10414413;27;20098;-61
2024/02/26 23:40:25;;;;;;;11.20;7.47;;;;;;;;;;10411775;27;20077;-62
2024/02/26 23:45:26;;;;;;;12.80;8.02;;;;;;;;;;10413449;27;20067;-62
2024/02/26 23:50:27;;;;;;;12.20;7.63;;;;;;;;;;10414626;28;20074;-62
2024/02/26 23:55:27;;;;;;;13.38;8.02;;;;;;;;;;10415912;28;20079;-62
